Time;durP1;ratioP1;P1;durP2;ratioP2;P2;SDS_P1;SDS_P2;PMS_P1;PMS_P2;Temp;Humidity;BMP_temperature;BMP_pressure;BME280_temperature;BME280_humidity;BME280_pressure;Samples;Min_cycle;Max_cycle;Signal;HPM_P1;HPM_P2
2021/05/19 00:01:28;;;;;;;1.15;0.70;;;22.30;56.30;;;;;;5111977;27;20035;-42
2021/05/19 00:03:53;;;;;;;0.90;0.60;;;22.30;55.50;;;;;;5113263;27;20030;-42
2021/05/19 00:06:19;;;;;;;1.10;0.65;;;22.20;55.90;;;;;;5121009;27;20508;-43
2021/05/19 00:08:45;;;;;;;0.90;0.77;;;22.20;55.80;;;;;;5107560;28;20087;-37
2021/05/19 00:11:10;;;;;;;0.82;0.80;;;22.10;56.00;;;;;;5119204;27;20031;-43
2021/05/19 00:13:36;;;;;;;0.80;0.70;;;22.20;55.90;;;;;;5112340;27;20052;-42
2021/05/19 00:16:03;;;;;;;0.60;0.60;;;22.20;55.90;;;;;;5111435;27;20045;-41
2021/05/19 00:18:29;;;;;;;0.75;0.57;;;22.20;55.80;;;;;;5111840;27;20034;-42
2021/05/19 00:20:54;;;;;;;0.50;0.50;;;22.20;55.80;;;;;;5108513;27;20027;-40
2021/05/19 00:23:20;;;;;;;0.77;0.70;;;22.20;55.70;;;;;;5112162;27;20024;-41
2021/05/19 00:25:46;;;;;;;1.10;0.80;;;22.20;55.80;;;;;;5113281;27;20028;-40
2021/05/19 00:28:11;;;;;;;0.73;0.60;;;22.20;55.60;;;;;;5110961;27;20535;-47
2021/05/19 00:30:38;;;;;;;1.60;0.85;;;22.20;55.70;;;;;;5116733;27;20444;-40
2021/05/19 00:33:04;;;;;;;0.40;0.40;;;22.20;55.60;;;;;;5109366;27;20036;-36
2021/05/19 00:35:29;;;;;;;0.52;0.52;;;22.20;55.70;;;;;;5111380;27;20043;-42
2021/05/19 00:37:55;;;;;;;1.17;0.80;;;22.10;55.70;;;;;;5124928;27;20089;-42
2021/05/19 00:40:21;;;;;;;0.75;0.50;;;22.20;55.60;;;;;;5114905;27;20023;-35
2021/05/19 00:42:46;;;;;;;0.88;0.80;;;22.20;55.60;;;;;;5111124;27;20364;-35
2021/05/19 00:45:13;;;;;;;0.57;0.57;;;22.20;56.20;;;;;;5109422;27;20047;-39
2021/05/19 00:47:40;;;;;;;0.80;0.80;;;22.10;55.90;;;;;;5114602;27;20024;-41
2021/05/19 00:50:07;;;;;;;0.68;0.63;;;22.10;55.80;;;;;;5096590;28;20027;-41
2021/05/19 00:52:33;;;;;;;0.65;0.60;;;22.10;55.80;;;;;;5111172;27;20063;-41
2021/05/19 00:54:58;;;;;;;0.90;0.75;;;22.10;55.80;;;;;;5095360;28;20512;-42
2021/05/19 00:57:24;;;;;;;1.17;0.60;;;22.10;55.80;;;;;;5112532;27;20042;-37
2021/05/19 00:59:50;;;;;;;1.02;0.88;;;22.20;55.60;;;;;;5090801;28;20044;-41
2021/05/19 01:02:16;;;;;;;1.33;0.80;;;22.20;55.60;;;;;;5113587;27;20068;-29
2021/05/19 01:04:42;;;;;;;0.60;0.60;;;22.20;55.60;;;;;;5112065;27;20030;-42
2021/05/19 01:07:32;;;;;;;0.65;0.60;;;22.20;55.60;;;;;;5109915;27;20038;-38
2021/05/19 01:09:53;;;;;;;0.50;0.50;;;22.20;55.50;;;;;;5110460;27;20067;-38
2021/05/19 01:12:20;;;;;;;1.00;0.70;;;22.10;55.70;;;;;;5112038;28;20061;-40
2021/05/19 01:14:46;;;;;;;1.00;0.70;;;22.10;55.60;;;;;;5106701;28;20035;-37
2021/05/19 01:17:12;;;;;;;0.90;0.55;;;22.10;55.70;;;;;;5113984;27;20028;-42
2021/05/19 01:19:42;;;;;;;0.88;0.73;;;22.10;55.70;;;;;;5110891;27;20116;-42
2021/05/19 01:22:14;;;;;;;0.68;0.65;;;22.10;55.70;;;;;;5110644;28;20024;-40
2021/05/19 01:24:40;;;;;;;0.75;0.60;;;22.10;55.70;;;;;;5095607;28;20048;-40
2021/05/19 01:27:06;;;;;;;0.82;0.70;;;22.00;55.80;;;;;;5109852;28;20028;-41
2021/05/19 01:29:32;;;;;;;1.10;0.55;;;22.10;55.70;;;;;;5109195;28;20027;-38
2021/05/19 01:31:57;;;;;;;0.50;0.50;;;22.00;55.70;;;;;;5115558;28;20042;-41
2021/05/19 01:34:23;;;;;;;0.63;0.63;;;22.10;55.70;;;;;;5118142;27;20086;-40
2021/05/19 01:36:48;;;;;;;0.90;0.70;;;22.00;55.60;;;;;;5113685;27;20035;-41
2021/05/19 01:39:14;;;;;;;1.17;0.70;;;22.00;55.70;;;;;;5114549;27;20031;-40
2021/05/19 01:41:40;;;;;;;1.30;0.80;;;22.00;55.80;;;;;;5111970;27;20017;-36
2021/05/19 01:44:13;;;;;;;0.77;0.50;;;21.90;55.90;;;;;;5118163;27;20439;-42
2021/05/19 01:46:39;;;;;;;0.87;0.60;;;21.90;55.80;;;;;;5114716;27;20098;-40
2021/05/19 01:49:05;;;;;;;0.60;0.55;;;22.00;55.80;;;;;;5114654;27;20043;-39
2021/05/19 01:51:30;;;;;;;0.50;0.40;;;22.00;55.70;;;;;;5114729;27;20450;-40
2021/05/19 01:53:56;;;;;;;0.70;0.60;;;22.00;55.70;;;;;;5094878;27;20501;-42
2021/05/19 01:56:22;;;;;;;1.05;0.50;;;22.00;55.70;;;;;;5099960;27;20385;-39
2021/05/19 01:58:47;;;;;;;1.17;0.57;;;22.00;55.70;;;;;;5117627;27;20172;-42
2021/05/19 02:01:13;;;;;;;1.02;0.63;;;22.00;55.70;;;;;;5128823;27;20505;-41
2021/05/19 02:03:38;;;;;;;0.75;0.40;;;22.00;55.70;;;;;;5100245;27;20031;-38
2021/05/19 02:06:04;;;;;;;0.60;0.52;;;21.90;56.50;;;;;;5093506;27;20073;-41
2021/05/19 02:08:30;;;;;;;1.55;0.60;;;21.90;55.80;;;;;;5112926;27;20027;-42
2021/05/19 02:10:55;;;;;;;0.40;0.40;;;22.00;55.90;;;;;;5116248;27;20095;-41
2021/05/19 02:13:21;;;;;;;1.27;0.50;;;22.00;55.50;;;;;;5106980;27;20044;-37
2021/05/19 02:15:46;;;;;;;0.68;0.52;;;22.10;55.50;;;;;;5099109;28;20417;-38
2021/05/19 02:18:12;;;;;;;0.52;0.40;;;22.10;55.60;;;;;;5092478;28;20020;-38
2021/05/19 02:20:38;;;;;;;0.60;0.50;;;22.10;56.10;;;;;;5091469;28;20115;-42
2021/05/19 02:23:04;;;;;;;0.50;0.50;;;22.10;55.30;;;;;;5096997;28;20498;-37
2021/05/19 02:25:30;;;;;;;0.40;0.40;;;22.10;55.20;;;;;;5092977;28;20032;-41
2021/05/19 02:27:55;;;;;;;0.90;0.50;;;22.10;55.40;;;;;;5094579;28;20103;-41
2021/05/19 02:30:21;;;;;;;0.57;0.47;;;22.10;55.30;;;;;;5101301;28;20106;-39
2021/05/19 02:32:47;;;;;;;0.77;0.45;;;22.10;55.30;;;;;;5088996;28;20024;-40
2021/05/19 02:35:13;;;;;;;0.35;0.35;;;22.10;55.40;;;;;;5093649;28;20088;-40
2021/05/19 02:37:40;;;;;;;0.75;0.43;;;22.10;55.40;;;;;;5093676;28;20114;-40
2021/05/19 02:40:06;;;;;;;0.50;0.50;;;22.10;55.40;;;;;;5092432;28;20415;-38
2021/05/19 02:42:32;;;;;;;0.40;0.40;;;22.10;55.30;;;;;;5093390;28;20544;-40
2021/05/19 02:44:57;;;;;;;0.60;0.43;;;22.00;55.50;;;;;;5088824;28;20140;-38
2021/05/19 02:47:23;;;;;;;1.17;0.60;;;22.10;55.40;;;;;;5075869;28;20025;-39
2021/05/19 02:49:48;;;;;;;0.50;0.50;;;22.10;55.30;;;;;;5095059;28;20031;-39
2021/05/19 02:52:14;;;;;;;0.73;0.50;;;22.00;55.40;;;;;;5093594;28;20383;-38
2021/05/19 02:54:40;;;;;;;0.88;0.70;;;22.10;55.30;;;;;;5093471;28;20046;-37
2021/05/19 02:57:06;;;;;;;0.85;0.50;;;22.00;55.50;;;;;;5096187;28;20478;-42
2021/05/19 02:59:31;;;;;;;0.60;0.40;;;22.00;55.70;;;;;;5090871;28;20440;-35
2021/05/19 03:01:57;;;;;;;0.68;0.60;;;22.00;55.50;;;;;;5095320;28;20584;-38
2021/05/19 03:04:22;;;;;;;1.15;0.50;;;22.00;55.50;;;;;;5095726;28;20142;-38
2021/05/19 03:06:48;;;;;;;0.50;0.40;;;22.00;55.40;;;;;;5095958;28;20031;-40
2021/05/19 03:09:14;;;;;;;0.60;0.60;;;22.10;55.30;;;;;;5102272;28;20477;-43
2021/05/19 03:11:39;;;;;;;0.75;0.50;;;22.10;55.10;;;;;;5106121;28;20119;-38
2021/05/19 03:14:05;;;;;;;0.50;0.50;;;22.10;55.30;;;;;;5096518;28;20640;-41
2021/05/19 03:16:31;;;;;;;0.40;0.40;;;22.10;55.10;;;;;;5092843;28;20062;-41
2021/05/19 03:18:57;;;;;;;0.47;0.43;;;22.00;55.30;;;;;;5093377;28;20095;-41
2021/05/19 03:21:23;;;;;;;0.70;0.50;;;22.00;56.00;;;;;;5091221;28;20122;-41
2021/05/19 03:23:48;;;;;;;1.25;0.57;;;22.00;55.50;;;;;;5088335;28;20020;-40
2021/05/19 03:26:14;;;;;;;0.55;0.50;;;22.00;55.40;;;;;;5095170;28;20409;-37
2021/05/19 03:28:40;;;;;;;0.30;0.30;;;22.00;55.90;;;;;;5092397;28;20032;-40
2021/05/19 03:31:06;;;;;;;0.82;0.50;;;22.00;55.30;;;;;;5076382;28;20031;-41
2021/05/19 03:33:31;;;;;;;0.63;0.50;;;22.00;55.40;;;;;;5091867;28;20059;-42
2021/05/19 03:35:57;;;;;;;0.93;0.50;;;21.80;55.90;;;;;;5086098;28;20578;-42
2021/05/19 03:38:23;;;;;;;0.50;0.50;;;21.80;56.80;;;;;;5086622;28;20024;-44
2021/05/19 03:40:48;;;;;;;1.00;0.50;;;21.80;55.90;;;;;;5086375;28;20031;-42
2021/05/19 03:43:14;;;;;;;0.60;0.50;;;21.80;56.60;;;;;;5091149;28;20470;-41
2021/05/19 03:45:39;;;;;;;0.73;0.50;;;21.70;55.90;;;;;;5093971;28;20023;-36
2021/05/19 03:48:05;;;;;;;0.63;0.40;;;21.80;56.00;;;;;;5086608;28;20024;-43
2021/05/19 03:50:31;;;;;;;0.40;0.30;;;21.80;55.90;;;;;;5070166;28;20016;-42
2021/05/19 03:52:57;;;;;;;0.65;0.40;;;21.80;55.90;;;;;;5104567;28;20050;-38
2021/05/19 03:55:23;;;;;;;0.60;0.50;;;21.80;55.70;;;;;;5092796;28;20674;-41
2021/05/19 03:57:49;;;;;;;0.80;0.52;;;21.80;55.90;;;;;;5092790;28;20039;-42
2021/05/19 04:00:17;;;;;;;0.68;0.60;;;21.80;55.90;;;;;;5089698;28;20018;-39
2021/05/19 04:02:49;;;;;;;0.50;0.43;;;21.80;55.80;;;;;;5088213;28;20039;-39
2021/05/19 04:05:22;;;;;;;0.55;0.40;;;21.80;55.70;;;;;;5089339;28;20509;-39
2021/05/19 04:07:48;;;;;;;0.63;0.30;;;21.80;56.50;;;;;;5092646;28;20028;-42
2021/05/19 04:10:14;;;;;;;1.17;0.60;;;21.80;56.00;;;;;;5089837;28;20028;-39
2021/05/19 04:12:40;;;;;;;0.68;0.40;;;21.80;55.70;;;;;;5090627;28;20047;-39
2021/05/19 04:15:06;;;;;;;0.57;0.47;;;21.80;55.70;;;;;;5088990;28;20098;-37
2021/05/19 04:17:31;;;;;;;0.32;0.30;;;21.80;55.90;;;;;;5090246;28;20020;-37
2021/05/19 04:19:57;;;;;;;0.55;0.47;;;21.70;56.10;;;;;;5090818;28;20085;-39
2021/05/19 04:22:22;;;;;;;0.50;0.40;;;21.70;56.00;;;;;;5088786;28;20027;-42
2021/05/19 04:24:48;;;;;;;0.50;0.40;;;21.70;56.10;;;;;;5088885;28;20039;-42
2021/05/19 04:27:13;;;;;;;0.90;0.32;;;21.70;56.00;;;;;;5088849;28;20032;-42
2021/05/19 04:29:39;;;;;;;0.30;0.30;;;21.70;55.90;;;;;;5088377;28;20549;-43
2021/05/19 04:32:05;;;;;;;0.60;0.40;;;21.70;56.00;;;;;;5089811;28;20055;-43
2021/05/19 04:34:31;;;;;;;0.45;0.40;;;21.70;55.90;;;;;;5087905;28;20051;-43
2021/05/19 04:36:56;;;;;;;0.30;0.30;;;21.70;55.90;;;;;;5090814;28;20020;-42
2021/05/19 04:39:22;;;;;;;0.68;0.40;;;21.90;55.70;;;;;;5086340;28;20055;-43
2021/05/19 04:41:47;;;;;;;0.88;0.45;;;22.00;55.50;;;;;;5090538;28;20055;-43
2021/05/19 04:44:13;;;;;;;0.65;0.50;;;22.10;55.30;;;;;;5095834;28;20123;-42
2021/05/19 04:46:39;;;;;;;1.02;0.57;;;22.10;55.40;;;;;;5090871;28;20031;-42
2021/05/19 04:49:04;;;;;;;0.38;0.38;;;22.20;55.60;;;;;;5078151;28;20032;-42
2021/05/19 04:51:30;;;;;;;1.55;0.85;;;22.20;55.60;;;;;;5074037;28;20027;-41
2021/05/19 04:53:55;;;;;;;0.90;0.50;;;22.30;56.40;;;;;;5088543;28;20039;-42
2021/05/19 04:56:21;;;;;;;0.50;0.50;;;22.30;56.30;;;;;;5087972;28;20028;-42
2021/05/19 04:58:47;;;;;;;1.27;0.70;;;22.30;56.50;;;;;;5085263;28;20023;-43
2021/05/19 05:01:12;;;;;;;0.85;0.60;;;22.30;56.10;;;;;;5092530;28;20020;-43
2021/05/19 05:03:38;;;;;;;5.18;0.50;;;22.30;57.60;;;;;;5092864;28;20040;-44
2021/05/19 05:06:03;;;;;;;1.65;0.75;;;22.30;56.40;;;;;;5088057;28;20510;-42
2021/05/19 05:08:29;;;;;;;0.73;0.57;;;22.30;56.70;;;;;;5088527;28;20032;-42
2021/05/19 05:10:55;;;;;;;0.47;0.43;;;22.30;57.40;;;;;;5088371;28;20448;-33
2021/05/19 05:13:22;;;;;;;1.65;0.63;;;22.20;56.40;;;;;;5086292;28;20099;-47
2021/05/19 05:15:48;;;;;;;2.17;0.50;;;22.10;57.50;;;;;;5087373;28;20134;-42
2021/05/19 05:18:13;;;;;;;3.10;0.60;;;22.00;56.90;;;;;;5086672;28;20772;-42
2021/05/19 05:20:39;;;;;;;1.40;0.47;;;22.00;56.90;;;;;;5087744;28;20103;-44
2021/05/19 05:23:05;;;;;;;0.40;0.30;;;21.90;56.80;;;;;;5090032;28;20024;-33
2021/05/19 05:25:33;;;;;;;2.88;0.50;;;21.90;57.00;;;;;;5070292;28;20028;-42
2021/05/19 05:27:59;;;;;;;1.45;0.70;;;21.90;57.20;;;;;;5088100;28;20613;-41
2021/05/19 05:30:24;;;;;;;1.13;0.65;;;21.90;57.20;;;;;;5090722;28;20107;-39
2021/05/19 05:32:50;;;;;;;2.40;0.55;;;21.80;57.50;;;;;;5085684;28;20017;-43
2021/05/19 05:35:16;;;;;;;0.52;0.50;;;21.80;57.40;;;;;;5107100;28;20062;-43
2021/05/19 05:37:41;;;;;;;0.60;0.55;;;21.80;57.30;;;;;;5091211;28;20032;-43
2021/05/19 05:40:08;;;;;;;1.73;0.47;;;22.00;57.30;;;;;;5090152;28;20710;-43
2021/05/19 05:42:34;;;;;;;0.57;0.52;;;22.00;56.70;;;;;;5090967;28;20055;-43
2021/05/19 05:45:00;;;;;;;1.00;0.70;;;22.10;56.30;;;;;;5087323;28;20653;-43
2021/05/19 05:47:25;;;;;;;1.23;0.60;;;22.10;56.30;;;;;;5090851;28;20429;-42
2021/05/19 05:49:51;;;;;;;0.50;0.50;;;22.20;56.40;;;;;;5091808;28;20031;-43
2021/05/19 05:52:17;;;;;;;0.68;0.30;;;22.10;56.50;;;;;;5090747;28;20051;-43
2021/05/19 05:54:42;;;;;;;1.80;0.80;;;22.10;56.50;;;;;;5089748;28;20032;-40
2021/05/19 05:57:08;;;;;;;0.63;0.50;;;21.90;57.70;;;;;;5088455;28;20019;-43
2021/05/19 05:59:34;;;;;;;0.98;0.50;;;21.90;56.90;;;;;;5088479;28;20028;-43
2021/05/19 06:02:00;;;;;;;1.50;0.57;;;21.90;57.20;;;;;;5092550;28;20024;-43
2021/05/19 06:04:25;;;;;;;1.63;0.50;;;21.90;56.80;;;;;;5085917;28;20512;-40
2021/05/19 06:06:51;;;;;;;1.10;0.50;;;21.90;56.60;;;;;;5088747;28;20043;-36
2021/05/19 06:09:16;;;;;;;0.93;0.40;;;22.00;56.20;;;;;;5086211;28;20552;-42
2021/05/19 06:11:42;;;;;;;1.05;0.50;;;22.10;55.80;;;;;;5087938;28;20116;-38
2021/05/19 06:14:07;;;;;;;0.50;0.30;;;22.10;55.60;;;;;;5086995;28;20036;-42
2021/05/19 06:16:34;;;;;;;0.77;0.47;;;22.10;55.50;;;;;;5086136;28;20036;-42
2021/05/19 06:19:00;;;;;;;0.68;0.50;;;22.20;55.60;;;;;;5087210;28;20494;-42
2021/05/19 06:21:25;;;;;;;1.08;0.52;;;22.20;55.60;;;;;;5087413;28;20028;-41
2021/05/19 06:23:51;;;;;;;1.30;0.60;;;22.10;55.60;;;;;;5090537;28;20013;-40
2021/05/19 06:26:16;;;;;;;0.95;0.40;;;22.10;55.40;;;;;;5097315;28;20024;-42
2021/05/19 06:28:42;;;;;;;0.70;0.50;;;22.00;56.30;;;;;;5104422;28;20028;-39
2021/05/19 06:31:08;;;;;;;0.63;0.43;;;22.00;55.70;;;;;;5092287;28;20062;-42
2021/05/19 06:33:33;;;;;;;0.73;0.50;;;22.00;55.90;;;;;;5091632;28;20105;-43
2021/05/19 06:35:59;;;;;;;1.75;0.98;;;22.10;55.50;;;;;;5090989;28;20514;-42
2021/05/19 06:38:24;;;;;;;1.23;0.63;;;22.10;55.50;;;;;;5078885;28;20020;-40
2021/05/19 06:40:50;;;;;;;0.35;0.35;;;22.10;55.20;;;;;;5094544;28;20024;-37
2021/05/19 06:43:16;;;;;;;0.57;0.40;;;22.10;55.40;;;;;;5092857;28;20024;-42
2021/05/19 06:45:41;;;;;;;0.90;0.40;;;22.10;55.40;;;;;;5093079;28;20115;-38
2021/05/19 06:48:07;;;;;;;1.85;0.30;;;22.10;55.00;;;;;;5087855;28;20031;-42
2021/05/19 06:50:33;;;;;;;0.65;0.40;;;22.20;55.10;;;;;;5088069;28;20056;-35
2021/05/19 06:52:58;;;;;;;0.50;0.50;;;22.20;55.00;;;;;;5094476;28;20673;-42
2021/05/19 06:55:24;;;;;;;0.82;0.60;;;22.20;54.90;;;;;;5091408;28;20051;-39
2021/05/19 06:57:50;;;;;;;0.90;0.50;;;22.20;54.90;;;;;;5089886;28;20028;-42
2021/05/19 07:00:17;;;;;;;1.00;0.50;;;22.20;54.80;;;;;;5051318;28;20023;-45
2021/05/19 07:02:42;;;;;;;0.43;0.30;;;22.20;54.80;;;;;;5089025;28;20082;-37
2021/05/19 07:05:08;;;;;;;0.30;0.30;;;22.20;55.40;;;;;;5094455;28;20028;-41
2021/05/19 07:07:34;;;;;;;0.73;0.57;;;22.20;55.40;;;;;;5087838;28;20058;-43
2021/05/19 07:10:00;;;;;;;0.60;0.50;;;22.10;56.10;;;;;;5092522;28;20226;-43
2021/05/19 07:12:25;;;;;;;1.17;0.40;;;22.10;55.50;;;;;;5099335;28;20497;-42
2021/05/19 07:14:54;;;;;;;0.50;0.38;;;22.20;55.50;;;;;;5109699;27;20047;-42
2021/05/19 07:17:20;;;;;;;0.93;0.32;;;22.10;55.40;;;;;;5096932;28;20034;-43
2021/05/19 07:19:45;;;;;;;0.57;0.30;;;22.20;55.70;;;;;;5113189;27;20036;-43
2021/05/19 07:22:11;;;;;;;0.30;0.30;;;22.20;56.50;;;;;;5114567;27;20121;-42
2021/05/19 07:24:37;;;;;;;0.60;0.30;;;22.10;56.40;;;;;;5121395;27;20030;-43
2021/05/19 07:27:02;;;;;;;0.40;0.30;;;22.20;56.20;;;;;;5107389;27;20081;-42
2021/05/19 07:29:28;;;;;;;0.40;0.40;;;22.30;56.70;;;;;;5108387;27;20120;-42
2021/05/19 07:31:54;;;;;;;1.05;0.30;;;22.30;56.50;;;;;;5111220;27;20036;-45
2021/05/19 07:34:19;;;;;;;2.00;0.38;;;22.30;57.50;;;;;;5116898;27;20497;-44
2021/05/19 07:36:45;;;;;;;0.63;0.30;;;22.30;57.00;;;;;;5111684;27;20019;-43
2021/05/19 07:39:11;;;;;;;0.63;0.40;;;22.20;57.00;;;;;;5107865;28;20015;-44
2021/05/19 07:41:37;;;;;;;0.75;0.30;;;22.20;56.50;;;;;;5105869;28;20871;-45
2021/05/19 07:44:03;;;;;;;1.95;0.30;;;22.30;57.00;;;;;;5108531;27;20142;-44
2021/05/19 07:46:29;;;;;;;0.22;0.22;;;22.20;56.70;;;;;;5111887;27;20023;-43
2021/05/19 07:48:54;;;;;;;0.55;0.30;;;22.20;56.80;;;;;;5110553;27;20031;-43
2021/05/19 07:51:20;;;;;;;0.60;0.32;;;22.20;56.30;;;;;;5113497;27;20019;-44
2021/05/19 07:53:46;;;;;;;1.95;0.40;;;22.20;57.30;;;;;;5107656;28;20477;-43
2021/05/19 07:58:44;;;;;;;0.85;0.40;;;22.20;56.80;;;;;;5112958;27;20023;-44
2021/05/19 08:01:23;;;;;;;0.68;0.30;;;22.20;56.60;;;;;;5110197;27;20115;-44
2021/05/19 08:03:51;;;;;;;0.63;0.40;;;22.20;56.70;;;;;;5110210;27;20072;-43
2021/05/19 08:06:16;;;;;;;0.32;0.28;;;22.10;56.20;;;;;;5123868;27;20032;-42
2021/05/19 08:08:42;;;;;;;0.40;0.40;;;22.10;56.90;;;;;;5107964;27;20027;-40
2021/05/19 08:11:07;;;;;;;0.80;0.32;;;22.10;56.70;;;;;;5115340;27;20375;-42
2021/05/19 08:13:39;;;;;;;0.75;0.30;;;22.20;56.30;;;;;;5110869;27;20118;-43
2021/05/19 08:16:05;;;;;;;4.20;0.40;;;22.30;55.60;;;;;;5111439;27;20040;-44
2021/05/19 08:18:30;;;;;;;1.85;0.45;;;22.20;56.40;;;;;;5105277;27;20409;-40
2021/05/19 08:20:56;;;;;;;1.05;0.50;;;22.20;56.10;;;;;;5113678;27;20050;-38
2021/05/19 08:23:22;;;;;;;0.98;0.45;;;22.20;56.20;;;;;;5123928;27;20505;-42
2021/05/19 08:25:47;;;;;;;0.60;0.47;;;22.10;56.50;;;;;;5121049;27;20051;-41
2021/05/19 08:28:13;;;;;;;1.08;0.30;;;22.00;56.90;;;;;;5113861;27;20031;-44
2021/05/19 08:30:38;;;;;;;0.65;0.50;;;22.00;56.30;;;;;;5113038;27;20205;-42
2021/05/19 08:33:04;;;;;;;0.45;0.45;;;22.10;57.10;;;;;;5122858;27;20036;-40
2021/05/19 08:35:30;;;;;;;1.58;0.40;;;22.10;56.30;;;;;;5111485;27;20075;-41
2021/05/19 08:37:55;;;;;;;0.30;0.30;;;22.10;56.80;;;;;;5112789;27;20016;-35
2021/05/19 08:40:21;;;;;;;0.60;0.40;;;22.00;56.60;;;;;;5111581;27;20038;-40
2021/05/19 08:42:47;;;;;;;0.52;0.38;;;22.00;55.40;;;;;;5110725;27;20034;-39
2021/05/19 08:45:12;;;;;;;0.68;0.30;;;22.10;56.50;;;;;;5090505;27;20024;-42
2021/05/19 08:47:38;;;;;;;0.88;0.50;;;22.10;56.70;;;;;;5104252;28;20088;-39
2021/05/19 08:50:05;;;;;;;0.30;0.30;;;22.10;56.70;;;;;;5108032;28;20027;-38
2021/05/19 08:52:31;;;;;;;1.00;0.38;;;22.20;57.10;;;;;;5110378;27;20027;-44
2021/05/19 08:54:57;;;;;;;0.52;0.25;;;22.30;56.60;;;;;;5095483;28;20038;-42
2021/05/19 08:57:23;;;;;;;0.40;0.40;;;22.40;57.00;;;;;;5111127;27;20019;-42
2021/05/19 08:59:48;;;;;;;0.70;0.40;;;22.30;56.70;;;;;;5106325;28;20024;-37
2021/05/19 09:02:15;;;;;;;0.52;0.52;;;22.40;56.60;;;;;;5115485;27;20102;-41
2021/05/19 09:04:42;;;;;;;0.52;0.30;;;22.40;56.90;;;;;;5107088;28;20023;-41
2021/05/19 09:07:09;;;;;;;0.30;0.30;;;22.40;56.70;;;;;;5111577;27;20096;-41
2021/05/19 09:09:36;;;;;;;0.43;0.43;;;22.40;56.70;;;;;;5109008;27;20030;-42
2021/05/19 09:12:09;;;;;;;1.45;0.52;;;22.40;57.00;;;;;;5121102;27;20158;-43
2021/05/19 09:14:36;;;;;;;0.30;0.30;;;22.50;56.70;;;;;;5108329;27;20073;-44
2021/05/19 09:17:27;;;;;;;0.30;0.30;;;22.50;56.70;;;;;;5115001;27;20471;-42
2021/05/19 09:20:15;;;;;;;0.85;0.45;;;22.50;56.90;;;;;;5113867;27;20151;-40
2021/05/19 09:22:42;;;;;;;0.90;0.40;;;22.60;56.60;;;;;;5109380;27;20019;-42
2021/05/19 09:25:21;;;;;;;0.85;0.50;;;22.60;56.50;;;;;;5110318;27;20055;-42
2021/05/19 09:27:51;;;;;;;4.55;0.50;;;22.60;56.50;;;;;;5110017;28;20044;-42
2021/05/19 09:30:34;;;;;;;0.57;0.40;;;22.70;55.80;;;;;;5109589;28;20042;-42
2021/05/19 09:33:22;;;;;;;3.53;0.47;;;22.80;55.70;;;;;;5078159;28;20099;-42
2021/05/19 09:36:16;;;;;;;1.95;0.50;;;22.70;56.20;;;;;;5088367;28;20127;-43
2021/05/19 09:38:47;;;;;;;1.50;0.43;;;22.70;56.10;;;;;;5117192;28;20024;-43
2021/05/19 09:41:28;;;;;;;0.43;0.40;;;22.70;56.50;;;;;;5114620;28;20301;-42
2021/05/19 09:43:56;;;;;;;1.10;0.63;;;22.60;56.40;;;;;;5103273;28;20028;-42
2021/05/19 09:49:16;;;;;;;0.70;0.45;;;22.50;57.20;;;;;;5114948;27;20056;-43
2021/05/19 09:51:50;;;;;;;2.88;0.45;;;22.50;56.50;;;;;;5116853;27;20023;-42
2021/05/19 09:54:26;;;;;;;1.77;0.30;;;22.70;55.90;;;;;;5111894;27;20097;-42
2021/05/19 09:56:55;;;;;;;3.08;0.55;;;22.60;56.00;;;;;;5100236;28;20032;-42
2021/05/19 09:59:21;;;;;;;0.35;0.30;;;22.60;55.80;;;;;;5118284;27;20028;-39
2021/05/19 10:01:47;;;;;;;0.32;0.25;;;22.60;55.80;;;;;;5115577;27;20370;-42
2021/05/19 10:04:13;;;;;;;0.73;0.35;;;22.70;55.30;;;;;;5090893;28;20020;-43
2021/05/19 10:06:39;;;;;;;0.47;0.32;;;22.90;54.90;;;;;;5091702;28;20035;-43
2021/05/19 10:09:05;;;;;;;0.52;0.30;;;23.00;54.80;;;;;;5076406;27;20535;-43
2021/05/19 10:11:31;;;;;;;0.68;0.30;;;23.00;54.50;;;;;;5111455;27;20043;-43
2021/05/19 10:13:58;;;;;;;0.55;0.45;;;23.00;54.20;;;;;;5101306;27;20063;-42
2021/05/19 10:16:23;;;;;;;3.92;0.43;;;23.10;54.10;;;;;;5075473;28;20040;-43
2021/05/19 10:18:54;;;;;;;0.57;0.30;;;23.10;54.00;;;;;;5059258;28;20031;-43
2021/05/19 10:21:19;;;;;;;0.70;0.40;;;23.10;54.10;;;;;;5075887;28;20502;-42
2021/05/19 10:24:05;;;;;;;0.40;0.40;;;23.10;53.70;;;;;;5073005;28;20035;-42
2021/05/19 10:26:32;;;;;;;0.38;0.38;;;23.10;53.40;;;;;;5095943;28;20031;-42
2021/05/19 10:28:59;;;;;;;0.60;0.30;;;23.10;53.40;;;;;;5094515;28;20078;-42
2021/05/19 10:31:29;;;;;;;0.70;0.35;;;23.10;53.50;;;;;;5093090;28;20032;-36
2021/05/19 10:33:56;;;;;;;1.40;0.40;;;23.20;53.40;;;;;;5095676;28;20023;-44
2021/05/19 10:36:24;;;;;;;1.88;0.50;;;23.10;54.30;;;;;;5094340;28;20059;-44
2021/05/19 10:39:09;;;;;;;1.02;0.47;;;23.10;53.90;;;;;;5088470;28;20028;-42
2021/05/19 10:41:36;;;;;;;4.88;0.60;;;23.00;55.00;;;;;;5088770;28;20031;-43
2021/05/19 10:44:08;;;;;;;1.95;0.65;;;22.90;55.50;;;;;;5096633;28;20032;-42
2021/05/19 10:46:46;;;;;;;5.53;0.70;;;23.00;54.30;;;;;;5089928;28;20020;-44
2021/05/19 10:49:12;;;;;;;1.48;0.50;;;23.10;55.00;;;;;;5087954;28;20032;-43
2021/05/19 10:51:46;;;;;;;1.25;0.40;;;23.10;54.80;;;;;;5071052;28;20031;-40
2021/05/19 11:00:15;;;;;;;3.15;0.80;;;23.30;54.30;;;;;;5087946;28;20528;-44
2021/05/19 11:03:04;;;;;;;4.97;0.60;;;23.30;55.10;;;;;;5093037;28;20028;-39
2021/05/19 11:05:37;;;;;;;0.40;0.40;;;23.20;54.60;;;;;;5087996;28;20036;-43
2021/05/19 11:08:10;;;;;;;0.68;0.40;;;23.20;54.70;;;;;;5091111;28;20062;-37
2021/05/19 11:10:37;;;;;;;1.75;0.73;;;23.10;54.50;;;;;;5090732;28;20043;-36
2021/05/19 11:13:04;;;;;;;1.65;0.57;;;23.10;54.30;;;;;;5087101;28;20541;-43
2021/05/19 11:16:00;;;;;;;1.35;0.75;;;23.10;54.10;;;;;;5069455;28;20036;-43
2021/05/19 11:18:34;;;;;;;3.70;0.95;;;23.10;54.10;;;;;;5083686;28;20055;-42
2021/05/19 11:21:00;;;;;;;1.70;0.90;;;23.20;54.20;;;;;;5086741;28;20039;-47
2021/05/19 11:23:26;;;;;;;1.58;1.20;;;23.20;53.90;;;;;;5083388;28;20036;-43
2021/05/19 11:26:13;;;;;;;7.72;1.50;;;23.20;54.30;;;;;;5068444;28;20066;-40
2021/05/19 11:28:39;;;;;;;2.42;1.70;;;23.20;54.10;;;;;;5081981;28;20066;-43
2021/05/19 11:31:16;;;;;;;1.50;1.40;;;23.30;54.20;;;;;;5062093;28;20162;-42
2021/05/19 11:33:53;;;;;;;1.73;1.60;;;23.20;53.60;;;;;;5087610;28;20060;-24
2021/05/19 11:36:52;;;;;;;1.58;1.48;;;23.30;53.80;;;;;;5083285;28;20037;-41
2021/05/19 11:39:25;;;;;;;1.58;1.40;;;23.20;53.50;;;;;;5065107;28;20085;-43
2021/05/19 11:41:51;;;;;;;2.45;1.85;;;23.20;54.00;;;;;;5068728;28;20032;-42
2021/05/19 11:44:34;;;;;;;1.65;1.55;;;23.40;53.80;;;;;;5084095;28;20072;-43
2021/05/19 11:47:00;;;;;;;5.72;1.92;;;23.30;53.90;;;;;;5086396;28;20111;-45
2021/05/19 11:49:25;;;;;;;1.95;1.67;;;23.20;53.80;;;;;;5088600;28;20119;-45
2021/05/19 11:51:51;;;;;;;2.30;1.75;;;23.20;54.10;;;;;;5083212;28;20028;-44
2021/05/19 11:54:16;;;;;;;1.98;1.60;;;23.20;54.40;;;;;;5066645;28;20034;-43
2021/05/19 11:56:53;;;;;;;3.72;1.75;;;23.30;53.70;;;;;;5080138;28;20043;-43
2021/05/19 11:59:21;;;;;;;2.53;1.35;;;23.30;53.40;;;;;;5084762;28;20032;-43
2021/05/19 12:02:01;;;;;;;2.05;1.77;;;23.30;53.60;;;;;;5087162;28;20035;-43
2021/05/19 12:04:28;;;;;;;1.50;1.40;;;23.20;53.90;;;;;;5086021;28;20032;-43
2021/05/19 12:06:54;;;;;;;2.13;1.75;;;23.30;53.70;;;;;;5083912;28;20020;-42
2021/05/19 12:09:22;;;;;;;2.97;1.20;;;23.30;53.70;;;;;;5084246;28;20406;-43
2021/05/19 12:11:47;;;;;;;1.42;1.33;;;23.30;53.60;;;;;;5080804;28;20024;-43
2021/05/19 12:14:13;;;;;;;5.32;0.90;;;23.30;54.10;;;;;;5088207;28;20505;-43
2021/05/19 12:16:46;;;;;;;1.33;1.23;;;23.50;53.10;;;;;;5088434;28;20036;-42
2021/05/19 12:19:13;;;;;;;1.92;1.50;;;23.40;53.10;;;;;;5092083;28;20032;-44
2021/05/19 12:21:52;;;;;;;2.20;1.30;;;23.40;53.60;;;;;;5100206;28;20031;-42
2021/05/19 12:24:18;;;;;;;1.17;1.08;;;23.40;53.40;;;;;;5089574;28;20046;-42
2021/05/19 12:26:45;;;;;;;2.10;1.20;;;23.40;54.20;;;;;;5071580;28;20056;-42
2021/05/19 12:29:29;;;;;;;1.10;1.00;;;23.30;53.30;;;;;;5091220;28;20016;-39
2021/05/19 12:32:07;;;;;;;1.35;1.23;;;23.50;53.00;;;;;;5089488;28;20027;-43
2021/05/19 12:34:34;;;;;;;1.70;1.33;;;23.40;53.80;;;;;;5089373;28;20035;-42
2021/05/19 12:36:59;;;;;;;1.38;1.27;;;23.30;53.30;;;;;;5091073;28;20785;-40
2021/05/19 12:39:26;;;;;;;1.00;0.90;;;23.30;53.40;;;;;;5091211;28;20028;-40
2021/05/19 12:41:53;;;;;;;1.00;1.00;;;23.30;53.30;;;;;;5088247;28;20539;-42
2021/05/19 12:44:19;;;;;;;2.28;0.90;;;23.30;54.30;;;;;;5093162;28;20024;-41
2021/05/19 12:47:06;;;;;;;1.30;1.00;;;23.30;53.60;;;;;;5093403;28;20110;-43
2021/05/19 12:49:32;;;;;;;1.67;1.02;;;23.30;53.40;;;;;;5086240;28;20027;-42
2021/05/19 12:51:59;;;;;;;1.10;1.00;;;23.30;53.10;;;;;;5084762;28;20035;-43
2021/05/19 12:54:36;;;;;;;1.13;1.05;;;23.20;53.20;;;;;;5084930;28;20050;-43
2021/05/19 12:57:10;;;;;;;1.20;1.10;;;23.30;53.10;;;;;;5084444;28;20501;-42
2021/05/19 12:59:52;;;;;;;2.90;1.00;;;23.20;53.30;;;;;;5090491;28;20023;-45
2021/05/19 13:02:18;;;;;;;1.30;0.98;;;23.30;53.50;;;;;;5088496;28;20039;-42